PWSweather.com
Personal Weather Stations
Station Observations
KCAOCEAN4
Jeffries Ranch, Oceanside, CA 92057

Jeffries RanchOceanside, CA 92057

Lat: 33.2463208, Lon: -117.25335080000002

Elevation: 207

Station Type: Davis Vantage Vue

jeffriesranchweather.com

High Low Average
Temperature 60.6°F15.9°C 41.7°F5.4°C 51.8°F11.0°C
Dew Point 48.6°F9.2°C 40.6°F4.8°C 44.4°F6.9°C
Winds 6.9 mph 11.1 kmh Calm Calm 2.0 mph SSE3.2 kmh SSE
Wind Gusts 15.0 mph24.1 kmh -- 5.0 mph8.0 kmh
Humidity 96% 55% 78%
Pressure 30.13 in1020.3 mb 30.03 in1016.9 mb -
Precipitation 0.01 in0.3 mm - -
Hour Temp Dew Point Humidity Winds Wind Gusts Pressure Precip Precip Rate Daily Precip Total
12:01 AM 47.1°F8.4°C 44.6°F7.0°C 91% 0.9 mph ESE1.4 kmh ESE 2.9 mph4.7 kmh 30.02 in1016.6 mb 0.07 in1.8 mm 4.20 in106.7 mm 0.07 in1.8 mm
12:11 AM 47.5°F8.6°C 45.0°F7.2°C 91% 2.0 mph NE3.2 kmh NE 4.9 mph7.9 kmh 30.03 in1016.9 mb 0.07 in1.8 mm 0.00 in0.0 mm 0.07 in1.8 mm
12:21 AM 47.5°F8.6°C 45.0°F7.2°C 91% 2.0 mph ESE3.2 kmh ESE 4.9 mph7.9 kmh 30.02 in1016.6 mb 0.02 in0.5 mm 0.00 in0.0 mm 0.07 in1.8 mm
12:31 AM 47.7°F8.7°C 45.1°F7.3°C 91% 0.9 mph SE1.4 kmh SE 2.9 mph4.7 kmh 30.02 in1016.6 mb 0.00 in0.0 mm 0.00 in0.0 mm 0.07 in1.8 mm
12:41 AM 47.7°F8.7°C 45.1°F7.3°C 91% 0.9 mph NE1.4 kmh NE 2.0 mph3.2 kmh 30.02 in1016.6 mb 0.00 in0.0 mm 0.00 in0.0 mm 0.07 in1.8 mm
12:51 AM 47.7°F8.7°C 45.1°F7.3°C 91% 0.9 mph ENE1.4 kmh ENE 4.0 mph6.4 kmh 30.02 in1016.6 mb 0.00 in0.0 mm 0.00 in0.0 mm 0.07 in1.8 mm
01:01 AM 47.5°F8.6°C 45.3°F7.4°C 92% 0.9 mph E1.4 kmh E 2.9 mph4.7 kmh 30.03 in1016.9 mb 0.00 in0.0 mm 0.00 in0.0 mm 0.07 in1.8 mm
01:11 AM 47.7°F8.7°C 45.5°F7.5°C 92% Calm Calm -- 30.03 in1016.9 mb 0.00 in0.0 mm 0.00 in0.0 mm 0.07 in1.8 mm
01:21 AM 47.7°F8.7°C 45.5°F7.5°C 92% 0.9 mph NNE1.4 kmh NNE 2.9 mph4.7 kmh 30.03 in1016.9 mb 0.00 in0.0 mm 0.00 in0.0 mm 0.07 in1.8 mm
01:31 AM 47.5°F8.6°C 45.3°F7.4°C 92% 0.9 mph E1.4 kmh E 4.0 mph6.4 kmh 30.03 in1016.9 mb 0.00 in0.0 mm 0.00 in0.0 mm 0.07 in1.8 mm
01:41 AM 47.3°F8.5°C 45.3°F7.4°C 93% 0.9 mph NNE1.4 kmh NNE 2.9 mph4.7 kmh 30.03 in1016.9 mb 0.00 in0.0 mm 0.00 in0.0 mm 0.07 in1.8 mm
01:51 AM 47.1°F8.4°C 45.1°F7.3°C 93% Calm Calm 2.0 mph3.2 kmh 30.04 in1017.3 mb 0.00 in0.0 mm 0.00 in0.0 mm 0.07 in1.8 mm
02:01 AM 46.9°F8.3°C 45.0°F7.2°C 93% Calm Calm 2.0 mph3.2 kmh 30.04 in1017.3 mb 0.00 in0.0 mm 0.00 in0.0 mm 0.07 in1.8 mm
02:11 AM 46.9°F8.3°C 45.3°F7.4°C 94% Calm Calm 0.9 mph1.4 kmh 30.04 in1017.3 mb 0.00 in0.0 mm 0.00 in0.0 mm 0.07 in1.8 mm
02:21 AM 46.8°F8.2°C 45.1°F7.3°C 94% Calm Calm 0.9 mph1.4 kmh 30.04 in1017.3 mb 0.00 in0.0 mm 0.00 in0.0 mm 0.07 in1.8 mm
02:31 AM 46.6°F8.1°C 45.0°F7.2°C 94% Calm Calm 1.0 mph1.6 kmh 30.04 in1017.3 mb 0.00 in0.0 mm 0.00 in0.0 mm 0.07 in1.8 mm
02:41 AM 46.6°F8.1°C 45.0°F7.2°C 94% Calm Calm 0.9 mph1.4 kmh 30.04 in1017.3 mb 0.01 in0.3 mm 0.06 in1.5 mm 0.01 in0.3 mm
02:51 AM 46.4°F8.0°C 44.8°F7.1°C 94% 0.9 mph E1.4 kmh E 2.9 mph4.7 kmh 30.03 in1016.9 mb 0.01 in0.3 mm 0.00 in0.0 mm 0.01 in0.3 mm
03:01 AM 46.2°F7.9°C 44.6°F7.0°C 94% Calm Calm 0.9 mph1.4 kmh 30.03 in1016.9 mb 0.01 in0.3 mm 0.00 in0.0 mm 0.01 in0.3 mm
03:11 AM 46.0°F7.8°C 44.4°F6.9°C 94% 0.9 mph NE1.4 kmh NE 2.0 mph3.2 kmh 30.03 in1016.9 mb 0.01 in0.3 mm 0.00 in0.0 mm 0.01 in0.3 mm
03:21 AM 45.9°F7.7°C 44.2°F6.8°C 94% Calm Calm 2.0 mph3.2 kmh 30.03 in1016.9 mb 0.01 in0.3 mm 0.00 in0.0 mm 0.01 in0.3 mm
03:31 AM 45.3°F7.4°C 43.7°F6.5°C 94% 0.9 mph NE1.4 kmh NE 2.9 mph4.7 kmh 30.03 in1016.9 mb 0.01 in0.3 mm 0.00 in0.0 mm 0.01 in0.3 mm
03:41 AM 45.1°F7.3°C 43.9°F6.6°C 95% 2.0 mph NE3.2 kmh NE 6.0 mph9.7 kmh 30.03 in1016.9 mb 0.00 in0.0 mm 0.00 in0.0 mm 0.01 in0.3 mm
03:51 AM 45.0°F7.2°C 43.7°F6.5°C 95% 0.9 mph ENE1.4 kmh ENE 4.0 mph6.4 kmh 30.03 in1016.9 mb 0.00 in0.0 mm 0.00 in0.0 mm 0.01 in0.3 mm
04:01 AM 44.8°F7.1°C 43.5°F6.4°C 95% 0.9 mph E1.4 kmh E 4.0 mph6.4 kmh 30.03 in1016.9 mb 0.00 in0.0 mm 0.00 in0.0 mm 0.01 in0.3 mm
04:11 AM 44.8°F7.1°C 43.5°F6.4°C 95% 2.0 mph NE3.2 kmh NE 4.0 mph6.4 kmh 30.03 in1016.9 mb 0.00 in0.0 mm 0.00 in0.0 mm 0.01 in0.3 mm
04:21 AM 44.8°F7.1°C 43.5°F6.4°C 95% 0.9 mph ESE1.4 kmh ESE 3.0 mph4.8 kmh 30.03 in1016.9 mb 0.00 in0.0 mm 0.00 in0.0 mm 0.01 in0.3 mm
04:31 AM 44.4°F6.9°C 43.2°F6.2°C 95% 0.9 mph E1.4 kmh E 2.9 mph4.7 kmh 30.03 in1016.9 mb 0.00 in0.0 mm 0.00 in0.0 mm 0.01 in0.3 mm
04:41 AM 44.2°F6.8°C 43.0°F6.1°C 95% Calm Calm 0.9 mph1.4 kmh 30.03 in1016.9 mb 0.00 in0.0 mm 0.00 in0.0 mm 0.01 in0.3 mm
04:51 AM 44.1°F6.7°C 42.8°F6.0°C 95% Calm Calm -- 30.03 in1016.9 mb 0.00 in0.0 mm 0.00 in0.0 mm 0.01 in0.3 mm
05:01 AM 43.9°F6.6°C 42.6°F5.9°C 95% 0.9 mph E1.4 kmh E 2.0 mph3.2 kmh 30.03 in1016.9 mb 0.00 in0.0 mm 0.00 in0.0 mm 0.01 in0.3 mm
05:11 AM 43.9°F6.6°C 42.6°F5.9°C 95% Calm Calm 2.0 mph3.2 kmh 30.04 in1017.3 mb 0.00 in0.0 mm 0.00 in0.0 mm 0.01 in0.3 mm
05:21 AM 43.5°F6.4°C 42.3°F5.7°C 95% 0.9 mph ENE1.4 kmh ENE 3.0 mph4.8 kmh 30.04 in1017.3 mb 0.00 in0.0 mm 0.00 in0.0 mm 0.01 in0.3 mm
05:31 AM 43.3°F6.3°C 42.1°F5.6°C 95% 0.9 mph ENE1.4 kmh ENE 2.9 mph4.7 kmh 30.04 in1017.3 mb 0.00 in0.0 mm 0.00 in0.0 mm 0.01 in0.3 mm
05:41 AM 43.3°F6.3°C 42.1°F5.6°C 95% 0.9 mph E1.4 kmh E 2.9 mph4.7 kmh 30.04 in1017.3 mb 0.00 in0.0 mm 0.00 in0.0 mm 0.01 in0.3 mm
05:51 AM 43.3°F6.3°C 42.1°F5.6°C 95% 2.0 mph NE3.2 kmh NE 4.0 mph6.4 kmh 30.04 in1017.3 mb 0.00 in0.0 mm 0.00 in0.0 mm 0.01 in0.3 mm
06:01 AM 43.0°F6.1°C 41.7°F5.4°C 95% 2.0 mph ENE3.2 kmh ENE 2.9 mph4.7 kmh 30.04 in1017.3 mb 0.00 in0.0 mm 0.00 in0.0 mm 0.01 in0.3 mm
06:11 AM 42.6°F5.9°C 41.4°F5.2°C 95% 0.9 mph ESE1.4 kmh ESE 2.9 mph4.7 kmh 30.05 in1017.6 mb 0.00 in0.0 mm 0.00 in0.0 mm 0.01 in0.3 mm
06:21 AM 42.4°F5.8°C 41.4°F5.2°C 96% 0.9 mph ENE1.4 kmh ENE 4.0 mph6.4 kmh 30.05 in1017.6 mb 0.00 in0.0 mm 0.00 in0.0 mm 0.01 in0.3 mm
06:31 AM 42.4°F5.8°C 41.4°F5.2°C 96% 2.0 mph ENE3.2 kmh ENE 6.0 mph9.7 kmh 30.05 in1017.6 mb 0.00 in0.0 mm 0.00 in0.0 mm 0.01 in0.3 mm
06:41 AM 42.3°F5.7°C 41.2°F5.1°C 96% 0.9 mph E1.4 kmh E 2.9 mph4.7 kmh 30.06 in1017.9 mb 0.00 in0.0 mm 0.00 in0.0 mm 0.01 in0.3 mm
06:51 AM 42.1°F5.6°C 41.0°F5.0°C 96% 2.0 mph E3.2 kmh E 4.0 mph6.4 kmh 30.06 in1017.9 mb 0.00 in0.0 mm 0.00 in0.0 mm 0.01 in0.3 mm
07:01 AM 41.7°F5.4°C 40.6°F4.8°C 96% 2.0 mph ENE3.2 kmh ENE 4.0 mph6.4 kmh 30.07 in1018.3 mb 0.00 in0.0 mm 0.00 in0.0 mm 0.01 in0.3 mm
07:11 AM 41.7°F5.4°C 40.6°F4.8°C 96% 2.0 mph E3.2 kmh E 4.9 mph7.9 kmh 30.08 in1018.6 mb 0.00 in0.0 mm 0.00 in0.0 mm 0.01 in0.3 mm
07:21 AM 42.1°F5.6°C 41.0°F5.0°C 96% 0.9 mph NE1.4 kmh NE 4.0 mph6.4 kmh 30.08 in1018.6 mb 0.00 in0.0 mm 0.00 in0.0 mm 0.01 in0.3 mm
07:31 AM 42.4°F5.8°C 41.2°F5.1°C 95% 2.0 mph ENE3.2 kmh ENE 4.9 mph7.9 kmh 30.09 in1019.0 mb 0.00 in0.0 mm 0.00 in0.0 mm 0.01 in0.3 mm
07:41 AM 42.6°F5.9°C 41.4°F5.2°C 95% 2.9 mph ENE4.7 kmh ENE 6.0 mph9.7 kmh 30.09 in1019.0 mb 0.00 in0.0 mm 0.00 in0.0 mm 0.01 in0.3 mm
07:51 AM 43.2°F6.2°C 41.9°F5.5°C 95% 2.0 mph ENE3.2 kmh ENE 4.9 mph7.9 kmh 30.09 in1019.0 mb 0.00 in0.0 mm 0.00 in0.0 mm 0.01 in0.3 mm
08:01 AM 43.5°F6.4°C 42.3°F5.7°C 95% 2.0 mph ENE3.2 kmh ENE 4.9 mph7.9 kmh 30.10 in1019.3 mb 0.00 in0.0 mm 0.00 in0.0 mm 0.01 in0.3 mm
08:11 AM 44.4°F6.9°C 43.2°F6.2°C 95% 2.0 mph ENE3.2 kmh ENE 4.9 mph7.9 kmh 30.10 in1019.3 mb 0.00 in0.0 mm 0.00 in0.0 mm 0.01 in0.3 mm
08:21 AM 45.7°F7.6°C 44.4°F6.9°C 95% Calm Calm 2.9 mph4.7 kmh 30.10 in1019.3 mb 0.00 in0.0 mm 0.00 in0.0 mm 0.01 in0.3 mm
08:31 AM 46.2°F7.9°C 44.6°F7.0°C 94% 0.9 mph NE1.4 kmh NE 3.0 mph4.8 kmh 30.11 in1019.6 mb 0.00 in0.0 mm 0.00 in0.0 mm 0.01 in0.3 mm
08:41 AM 46.9°F8.3°C 45.3°F7.4°C 94% 0.9 mph NE1.4 kmh NE 2.9 mph4.7 kmh 30.11 in1019.6 mb 0.00 in0.0 mm 0.00 in0.0 mm 0.01 in0.3 mm
08:51 AM 48.4°F9.1°C 46.8°F8.2°C 94% Calm Calm 0.9 mph1.4 kmh 30.11 in1019.6 mb 0.00 in0.0 mm 0.00 in0.0 mm 0.01 in0.3 mm
09:01 AM 48.7°F9.3°C 46.6°F8.1°C 92% 0.9 mph NE1.4 kmh NE 3.0 mph4.8 kmh 30.11 in1019.6 mb 0.00 in0.0 mm 0.00 in0.0 mm 0.01 in0.3 mm
09:11 AM 49.3°F9.6°C 46.8°F8.2°C 91% 2.0 mph NE3.2 kmh NE 4.0 mph6.4 kmh 30.11 in1019.6 mb 0.00 in0.0 mm 0.00 in0.0 mm 0.01 in0.3 mm
09:21 AM 50.2°F10.1°C 47.3°F8.5°C 90% 0.9 mph ENE1.4 kmh ENE 2.9 mph4.7 kmh 30.11 in1019.6 mb 0.00 in0.0 mm 0.00 in0.0 mm 0.01 in0.3 mm
09:31 AM 51.1°F10.6°C 48.0°F8.9°C 89% 2.0 mph NE3.2 kmh NE 5.0 mph8.0 kmh 30.12 in1020.0 mb 0.00 in0.0 mm 0.00 in0.0 mm 0.01 in0.3 mm
09:41 AM 52.0°F11.1°C 48.6°F9.2°C 88% 2.0 mph NE3.2 kmh NE 4.0 mph6.4 kmh 30.12 in1020.0 mb 0.00 in0.0 mm 0.00 in0.0 mm 0.01 in0.3 mm
09:51 AM 53.2°F11.8°C 48.6°F9.2°C 84% 0.9 mph ENE1.4 kmh ENE 2.9 mph4.7 kmh 30.12 in1020.0 mb 0.00 in0.0 mm 0.00 in0.0 mm 0.01 in0.3 mm
10:01 AM 54.3°F12.4°C 47.7°F8.7°C 78% 0.9 mph NE1.4 kmh NE 2.9 mph4.7 kmh 30.12 in1020.0 mb 0.00 in0.0 mm 0.00 in0.0 mm 0.01 in0.3 mm
10:11 AM 55.0°F12.8°C 45.9°F7.7°C 71% 2.0 mph NE3.2 kmh NE 6.9 mph11.1 kmh 30.12 in1020.0 mb 0.00 in0.0 mm 0.00 in0.0 mm 0.01 in0.3 mm
10:21 AM 55.8°F13.2°C 45.7°F7.6°C 69% 2.0 mph WNW3.2 kmh WNW 4.0 mph6.4 kmh 30.13 in1020.3 mb 0.00 in0.0 mm 0.00 in0.0 mm 0.01 in0.3 mm
10:31 AM 56.7°F13.7°C 45.0°F7.2°C 65% 0.9 mph WSW1.4 kmh WSW 5.0 mph8.0 kmh 30.13 in1020.3 mb 0.00 in0.0 mm 0.00 in0.0 mm 0.01 in0.3 mm
10:41 AM 57.2°F14.0°C 44.2°F6.8°C 62% 0.9 mph SSW1.4 kmh SSW 4.0 mph6.4 kmh 30.13 in1020.3 mb 0.00 in0.0 mm 0.00 in0.0 mm 0.01 in0.3 mm
10:51 AM 57.4°F14.1°C 45.0°F7.2°C 63% 0.9 mph WSW1.4 kmh WSW 4.0 mph6.4 kmh 30.13 in1020.3 mb 0.00 in0.0 mm 0.00 in0.0 mm 0.01 in0.3 mm
11:01 AM 57.0°F13.9°C 44.1°F6.7°C 62% 2.0 mph W3.2 kmh W 4.0 mph6.4 kmh 30.13 in1020.3 mb 0.00 in0.0 mm 0.00 in0.0 mm 0.01 in0.3 mm
11:11 AM 57.7°F14.3°C 43.9°F6.6°C 60% 0.9 mph NNE1.4 kmh NNE 5.0 mph8.0 kmh 30.13 in1020.3 mb 0.00 in0.0 mm 0.00 in0.0 mm 0.01 in0.3 mm
11:21 AM 58.3°F14.6°C 44.1°F6.7°C 59% 0.9 mph W1.4 kmh W 4.9 mph7.9 kmh 30.13 in1020.3 mb 0.00 in0.0 mm 0.00 in0.0 mm 0.01 in0.3 mm
11:31 AM 58.3°F14.6°C 43.5°F6.4°C 58% 2.0 mph WSW3.2 kmh WSW 6.0 mph9.7 kmh 30.13 in1020.3 mb 0.00 in0.0 mm 0.00 in0.0 mm 0.01 in0.3 mm
11:41 AM 58.8°F14.9°C 43.7°F6.5°C 57% 0.9 mph W1.4 kmh W 6.0 mph9.7 kmh 30.13 in1020.3 mb 0.00 in0.0 mm 0.00 in0.0 mm 0.01 in0.3 mm
11:51 AM 59.4°F15.2°C 45.0°F7.2°C 59% 2.0 mph WSW3.2 kmh WSW 6.0 mph9.7 kmh 30.13 in1020.3 mb 0.00 in0.0 mm 0.00 in0.0 mm 0.01 in0.3 mm
12:01 PM 59.4°F15.2°C 44.6°F7.0°C 58% 4.0 mph S6.4 kmh S 8.1 mph13.0 kmh 30.13 in1020.3 mb 0.00 in0.0 mm 0.00 in0.0 mm 0.01 in0.3 mm
12:11 PM 59.2°F15.1°C 44.8°F7.1°C 59% 4.0 mph WSW6.4 kmh WSW 8.1 mph13.0 kmh 30.13 in1020.3 mb 0.00 in0.0 mm 0.00 in0.0 mm 0.01 in0.3 mm
12:21 PM 59.4°F15.2°C 44.6°F7.0°C 58% 4.0 mph SSW6.4 kmh SSW 8.9 mph14.3 kmh 30.13 in1020.3 mb 0.00 in0.0 mm 0.00 in0.0 mm 0.01 in0.3 mm
12:31 PM 60.3°F15.7°C 45.5°F7.5°C 58% 2.0 mph S3.2 kmh S 6.9 mph11.1 kmh 30.13 in1020.3 mb 0.00 in0.0 mm 0.00 in0.0 mm 0.01 in0.3 mm
12:41 PM 60.1°F15.6°C 44.8°F7.1°C 57% 4.0 mph SSW6.4 kmh SSW 8.9 mph14.3 kmh 30.13 in1020.3 mb 0.00 in0.0 mm 0.00 in0.0 mm 0.01 in0.3 mm
12:51 PM 59.5°F15.3°C 44.2°F6.8°C 57% 4.0 mph WSW6.4 kmh WSW 11.0 mph17.7 kmh 30.13 in1020.3 mb 0.00 in0.0 mm 0.00 in0.0 mm 0.01 in0.3 mm
01:01 PM 60.1°F15.6°C 45.7°F7.6°C 59% 4.9 mph W7.9 kmh W 10.1 mph16.3 kmh 30.12 in1020.0 mb 0.00 in0.0 mm 0.00 in0.0 mm 0.01 in0.3 mm
01:11 PM 60.3°F15.7°C 45.5°F7.5°C 58% 4.0 mph NW6.4 kmh NW 10.1 mph16.3 kmh 30.12 in1020.0 mb 0.00 in0.0 mm 0.00 in0.0 mm 0.01 in0.3 mm
01:21 PM 60.3°F15.7°C 45.9°F7.7°C 59% 4.9 mph NW7.9 kmh NW 11.0 mph17.7 kmh 30.13 in1020.3 mb 0.00 in0.0 mm 0.00 in0.0 mm 0.01 in0.3 mm
01:31 PM 59.0°F15.0°C 45.5°F7.5°C 61% 6.0 mph NW9.7 kmh NW 13.0 mph20.9 kmh 30.12 in1020.0 mb 0.00 in0.0 mm 0.00 in0.0 mm 0.01 in0.3 mm
01:41 PM 59.4°F15.2°C 45.9°F7.7°C 61% 4.9 mph WSW7.9 kmh WSW 10.1 mph16.3 kmh 30.12 in1020.0 mb 0.00 in0.0 mm 0.00 in0.0 mm 0.01 in0.3 mm
01:51 PM 60.1°F15.6°C 46.6°F8.1°C 61% 4.9 mph WNW7.9 kmh WNW 11.0 mph17.7 kmh 30.12 in1020.0 mb 0.00 in0.0 mm 0.00 in0.0 mm 0.01 in0.3 mm
02:01 PM 59.5°F15.3°C 45.7°F7.6°C 60% 6.9 mph NW11.1 kmh NW 15.0 mph24.1 kmh 30.11 in1019.6 mb 0.00 in0.0 mm 0.00 in0.0 mm 0.01 in0.3 mm
02:11 PM 59.7°F15.4°C 46.2°F7.9°C 61% 6.0 mph W9.7 kmh W 15.0 mph24.1 kmh 30.10 in1019.3 mb 0.00 in0.0 mm 0.00 in0.0 mm 0.01 in0.3 mm
02:21 PM 60.1°F15.6°C 46.2°F7.9°C 60% 4.0 mph WSW6.4 kmh WSW 8.9 mph14.3 kmh 30.10 in1019.3 mb 0.00 in0.0 mm 0.00 in0.0 mm 0.01 in0.3 mm
02:31 PM 60.1°F15.6°C 46.2°F7.9°C 60% 4.9 mph WNW7.9 kmh WNW 8.9 mph14.3 kmh 30.10 in1019.3 mb 0.00 in0.0 mm 0.00 in0.0 mm 0.01 in0.3 mm
02:41 PM 59.7°F15.4°C 45.0°F7.2°C 58% 6.0 mph WNW9.7 kmh WNW 12.1 mph19.5 kmh 30.10 in1019.3 mb 0.00 in0.0 mm 0.00 in0.0 mm 0.01 in0.3 mm
02:51 PM 59.4°F15.2°C 44.6°F7.0°C 58% 4.9 mph WSW7.9 kmh WSW 13.0 mph20.9 kmh 30.10 in1019.3 mb 0.00 in0.0 mm 0.00 in0.0 mm 0.01 in0.3 mm
03:01 PM 60.1°F15.6°C 44.4°F6.9°C 56% 4.9 mph WNW7.9 kmh WNW 10.1 mph16.3 kmh 30.09 in1019.0 mb 0.00 in0.0 mm 0.00 in0.0 mm 0.01 in0.3 mm
03:11 PM 59.9°F15.5°C 44.6°F7.0°C 57% 6.0 mph WSW9.7 kmh WSW 12.1 mph19.5 kmh 30.08 in1018.6 mb 0.00 in0.0 mm 0.00 in0.0 mm 0.01 in0.3 mm
03:21 PM 60.4°F15.8°C 45.1°F7.3°C 57% 2.9 mph WNW4.7 kmh WNW 10.1 mph16.3 kmh 30.07 in1018.3 mb 0.00 in0.0 mm 0.00 in0.0 mm 0.01 in0.3 mm
03:31 PM 60.6°F15.9°C 44.4°F6.9°C 55% 4.0 mph W6.4 kmh W 8.9 mph14.3 kmh 30.07 in1018.3 mb 0.00 in0.0 mm 0.00 in0.0 mm 0.01 in0.3 mm
03:41 PM 60.3°F15.7°C 45.5°F7.5°C 58% 4.9 mph SSW7.9 kmh SSW 12.1 mph19.5 kmh 30.08 in1018.6 mb 0.00 in0.0 mm 0.00 in0.0 mm 0.01 in0.3 mm
03:51 PM 60.1°F15.6°C 45.3°F7.4°C 58% 6.9 mph WNW11.1 kmh WNW 12.1 mph19.5 kmh 30.08 in1018.6 mb 0.00 in0.0 mm 0.00 in0.0 mm 0.01 in0.3 mm
04:01 PM 59.5°F15.3°C 45.1°F7.3°C 59% 6.9 mph SW11.1 kmh SW 14.1 mph22.7 kmh 30.08 in1018.6 mb 0.00 in0.0 mm 0.00 in0.0 mm 0.01 in0.3 mm
04:11 PM 59.7°F15.4°C 45.0°F7.2°C 58% 6.0 mph W9.7 kmh W 15.0 mph24.1 kmh 30.08 in1018.6 mb 0.00 in0.0 mm 0.00 in0.0 mm 0.01 in0.3 mm
04:21 PM 59.5°F15.3°C 45.1°F7.3°C 59% 6.9 mph WSW11.1 kmh WSW 12.1 mph19.5 kmh 30.08 in1018.6 mb 0.00 in0.0 mm 0.00 in0.0 mm 0.01 in0.3 mm
04:31 PM 58.6°F14.8°C 44.8°F7.1°C 60% 4.9 mph W7.9 kmh W 11.0 mph17.7 kmh 30.08 in1018.6 mb 0.00 in0.0 mm 0.00 in0.0 mm 0.01 in0.3 mm
04:41 PM 58.5°F14.7°C 45.1°F7.3°C 61% 4.9 mph NW7.9 kmh NW 11.0 mph17.7 kmh 30.08 in1018.6 mb 0.00 in0.0 mm 0.00 in0.0 mm 0.01 in0.3 mm
04:51 PM 58.5°F14.7°C 45.5°F7.5°C 62% 4.9 mph W7.9 kmh W 11.0 mph17.7 kmh 30.08 in1018.6 mb 0.00 in0.0 mm 0.00 in0.0 mm 0.01 in0.3 mm
05:01 PM 58.3°F14.6°C 44.4°F6.9°C 60% 6.0 mph NW9.7 kmh NW 11.0 mph17.7 kmh 30.08 in1018.6 mb 0.00 in0.0 mm 0.00 in0.0 mm 0.01 in0.3 mm
05:11 PM 57.7°F14.3°C 44.4°F6.9°C 61% 4.9 mph W7.9 kmh W 8.9 mph14.3 kmh 30.06 in1017.9 mb 0.00 in0.0 mm 0.00 in0.0 mm 0.01 in0.3 mm
05:21 PM 57.6°F14.2°C 43.7°F6.5°C 60% 4.0 mph W6.4 kmh W 8.9 mph14.3 kmh 30.07 in1018.3 mb 0.00 in0.0 mm 0.00 in0.0 mm 0.01 in0.3 mm
05:31 PM 57.6°F14.2°C 43.7°F6.5°C 60% 2.9 mph WNW4.7 kmh WNW 6.9 mph11.1 kmh 30.07 in1018.3 mb 0.00 in0.0 mm 0.00 in0.0 mm 0.01 in0.3 mm
05:41 PM 57.4°F14.1°C 44.1°F6.7°C 61% 4.0 mph W6.4 kmh W 6.9 mph11.1 kmh 30.07 in1018.3 mb 0.00 in0.0 mm 0.00 in0.0 mm 0.01 in0.3 mm
05:51 PM 57.0°F13.9°C 43.3°F6.3°C 60% 4.0 mph SW6.4 kmh SW 6.9 mph11.1 kmh 30.07 in1018.3 mb 0.00 in0.0 mm 0.00 in0.0 mm 0.01 in0.3 mm
06:01 PM 56.8°F13.8°C 43.9°F6.6°C 62% 2.9 mph WNW4.7 kmh WNW 6.0 mph9.7 kmh 30.08 in1018.6 mb 0.00 in0.0 mm 0.00 in0.0 mm 0.01 in0.3 mm
06:11 PM 56.1°F13.4°C 43.7°F6.5°C 63% 4.0 mph W6.4 kmh W 10.1 mph16.3 kmh 30.08 in1018.6 mb 0.00 in0.0 mm 0.00 in0.0 mm 0.01 in0.3 mm
06:21 PM 55.8°F13.2°C 43.7°F6.5°C 64% 2.9 mph NW4.7 kmh NW 6.9 mph11.1 kmh 30.08 in1018.6 mb 0.00 in0.0 mm 0.00 in0.0 mm 0.01 in0.3 mm
06:31 PM 55.6°F13.1°C 43.5°F6.4°C 64% 2.0 mph WSW3.2 kmh WSW 6.0 mph9.7 kmh 30.09 in1019.0 mb 0.00 in0.0 mm 0.00 in0.0 mm 0.01 in0.3 mm
06:41 PM 55.4°F13.0°C 44.6°F7.0°C 67% 0.9 mph NW1.4 kmh NW 2.9 mph4.7 kmh 30.09 in1019.0 mb 0.00 in0.0 mm 0.00 in0.0 mm 0.01 in0.3 mm
06:51 PM 55.2°F12.9°C 44.8°F7.1°C 68% 2.0 mph WNW3.2 kmh WNW 6.0 mph9.7 kmh 30.09 in1019.0 mb 0.00 in0.0 mm 0.00 in0.0 mm 0.01 in0.3 mm
07:01 PM 55.2°F12.9°C 45.1°F7.3°C 69% 2.9 mph WSW4.7 kmh WSW 6.0 mph9.7 kmh 30.09 in1019.0 mb 0.00 in0.0 mm 0.00 in0.0 mm 0.01 in0.3 mm
07:12 PM 54.9°F12.7°C 45.0°F7.2°C 69% 0.9 mph WSW1.4 kmh WSW 2.9 mph4.7 kmh 30.09 in1019.0 mb 0.00 in0.0 mm 0.00 in0.0 mm 0.01 in0.3 mm
07:22 PM 54.5°F12.5°C 45.0°F7.2°C 70% 0.9 mph WSW1.4 kmh WSW 2.9 mph4.7 kmh 30.09 in1019.0 mb 0.00 in0.0 mm 0.00 in0.0 mm 0.01 in0.3 mm
07:32 PM 54.1°F12.3°C 45.3°F7.4°C 72% Calm Calm 2.0 mph3.2 kmh 30.09 in1019.0 mb 0.00 in0.0 mm 0.00 in0.0 mm 0.01 in0.3 mm
07:42 PM 53.8°F12.1°C 45.0°F7.2°C 72% Calm Calm -- 30.10 in1019.3 mb 0.00 in0.0 mm 0.00 in0.0 mm 0.01 in0.3 mm
07:52 PM 53.8°F12.1°C 45.3°F7.4°C 73% Calm Calm 1.0 mph1.6 kmh 30.10 in1019.3 mb 0.00 in0.0 mm 0.00 in0.0 mm 0.01 in0.3 mm
08:02 PM 52.9°F11.6°C 45.5°F7.5°C 76% Calm Calm 2.0 mph3.2 kmh 30.10 in1019.3 mb 0.00 in0.0 mm 0.00 in0.0 mm 0.01 in0.3 mm
08:12 PM 52.3°F11.3°C 45.3°F7.4°C 77% 0.9 mph ESE1.4 kmh ESE 2.0 mph3.2 kmh 30.10 in1019.3 mb 0.00 in0.0 mm 0.00 in0.0 mm 0.01 in0.3 mm
08:22 PM 52.3°F11.3°C 45.3°F7.4°C 77% 0.9 mph SE1.4 kmh SE 2.9 mph4.7 kmh 30.09 in1019.0 mb 0.00 in0.0 mm 0.00 in0.0 mm 0.01 in0.3 mm
08:32 PM 52.5°F11.4°C 45.5°F7.5°C 77% 2.0 mph ESE3.2 kmh ESE 2.9 mph4.7 kmh 30.08 in1018.6 mb 0.00 in0.0 mm 0.00 in0.0 mm 0.01 in0.3 mm
08:42 PM 52.5°F11.4°C 45.5°F7.5°C 77% 0.9 mph SE1.4 kmh SE 2.9 mph4.7 kmh 30.09 in1019.0 mb 0.00 in0.0 mm 0.00 in0.0 mm 0.01 in0.3 mm
08:52 PM 52.5°F11.4°C 45.5°F7.5°C 77% Calm Calm 0.9 mph1.4 kmh 30.08 in1018.6 mb 0.00 in0.0 mm 0.00 in0.0 mm 0.01 in0.3 mm
09:02 PM 52.5°F11.4°C 45.5°F7.5°C 77% Calm Calm 0.9 mph1.4 kmh 30.08 in1018.6 mb 0.00 in0.0 mm 0.00 in0.0 mm 0.01 in0.3 mm
09:12 PM 52.2°F11.2°C 45.5°F7.5°C 78% Calm Calm 0.9 mph1.4 kmh 30.08 in1018.6 mb 0.00 in0.0 mm 0.00 in0.0 mm 0.01 in0.3 mm
09:22 PM 52.2°F11.2°C 44.8°F7.1°C 76% 0.9 mph NE1.4 kmh NE 4.0 mph6.4 kmh 30.07 in1018.3 mb 0.00 in0.0 mm 0.00 in0.0 mm 0.01 in0.3 mm
09:32 PM 52.2°F11.2°C 44.8°F7.1°C 76% 2.0 mph NE3.2 kmh NE 2.9 mph4.7 kmh 30.06 in1017.9 mb 0.00 in0.0 mm 0.00 in0.0 mm 0.01 in0.3 mm
09:42 PM 51.6°F10.9°C 44.6°F7.0°C 77% 2.0 mph NE3.2 kmh NE 4.0 mph6.4 kmh 30.06 in1017.9 mb 0.00 in0.0 mm 0.00 in0.0 mm 0.01 in0.3 mm
09:52 PM 51.4°F10.8°C 44.8°F7.1°C 78% 2.9 mph ENE4.7 kmh ENE 4.9 mph7.9 kmh 30.06 in1017.9 mb 0.00 in0.0 mm 0.00 in0.0 mm 0.01 in0.3 mm
10:02 PM 51.1°F10.6°C 44.4°F6.9°C 78% 4.0 mph NE6.4 kmh NE 6.0 mph9.7 kmh 30.05 in1017.6 mb 0.00 in0.0 mm 0.00 in0.0 mm 0.01 in0.3 mm
10:12 PM 51.1°F10.6°C 44.1°F6.7°C 77% 0.9 mph NNE1.4 kmh NNE 4.0 mph6.4 kmh 30.06 in1017.9 mb 0.00 in0.0 mm 0.00 in0.0 mm 0.01 in0.3 mm
10:22 PM 51.1°F10.6°C 44.1°F6.7°C 77% 0.9 mph NE1.4 kmh NE 2.0 mph3.2 kmh 30.06 in1017.9 mb 0.00 in0.0 mm 0.00 in0.0 mm 0.01 in0.3 mm
10:32 PM 51.1°F10.6°C 44.4°F6.9°C 78% Calm Calm 2.0 mph3.2 kmh 30.06 in1017.9 mb 0.00 in0.0 mm 0.00 in0.0 mm 0.01 in0.3 mm
10:42 PM 50.5°F10.3°C 44.2°F6.8°C 79% Calm Calm 0.9 mph1.4 kmh 30.06 in1017.9 mb 0.00 in0.0 mm 0.00 in0.0 mm 0.01 in0.3 mm
10:52 PM 50.7°F10.4°C 44.4°F6.9°C 79% Calm Calm 2.0 mph3.2 kmh 30.06 in1017.9 mb 0.00 in0.0 mm 0.00 in0.0 mm 0.01 in0.3 mm
11:02 PM 50.5°F10.3°C 44.6°F7.0°C 80% Calm Calm 0.9 mph1.4 kmh 30.06 in1017.9 mb 0.00 in0.0 mm 0.00 in0.0 mm 0.01 in0.3 mm
11:12 PM 50.4°F10.2°C 44.8°F7.1°C 81% Calm Calm -- 30.06 in1017.9 mb 0.00 in0.0 mm 0.00 in0.0 mm 0.01 in0.3 mm
11:22 PM 49.5°F9.7°C 44.2°F6.8°C 82% Calm Calm 1.0 mph1.6 kmh 30.05 in1017.6 mb 0.00 in0.0 mm 0.00 in0.0 mm 0.01 in0.3 mm
11:32 PM 49.1°F9.5°C 44.2°F6.8°C 83% Calm Calm 0.9 mph1.4 kmh 30.05 in1017.6 mb 0.00 in0.0 mm 0.00 in0.0 mm 0.01 in0.3 mm
11:42 PM 48.7°F9.3°C 43.9°F6.6°C 83% Calm Calm 0.9 mph1.4 kmh 30.05 in1017.6 mb 0.00 in0.0 mm 0.00 in0.0 mm 0.01 in0.3 mm
11:52 PM 48.2°F9.0°C 43.5°F6.4°C 84% Calm Calm 1.0 mph1.6 kmh 30.06 in1017.9 mb 0.00 in0.0 mm 0.00 in0.0 mm 0.01 in0.3 mm